Rusk, Texas
Current Conditions -  °F | °C
As of 11:15 PM on Friday 28 Nov 2014 (Local Time) from KJSO Reporting Station
Clear Clear  
Wind Chill: 57°   Ceiling: Unl
Heat Index: 57°   Visibility: 10mi
Dew Point: 55°   Wind: 13mph
Humidity: 91%   Direction: 190°S
Pressure: 30.08"   Gusts: NA
Location:  31.8°N, 95.15°W
Report Text: KJSO 290515Z AUTO 19011KT 10SM CLR 13/12 A3008 RMK AO2 T01400126
Loading
Personal Weather Stations






























Interactive Weather Map New forecast layout! Learn more

10-Day Weather Forecast

Advertisements
Track Severe Weather on mobile